createdAt,value
2022-07-25T00:02:04.949Z,48.43
2022-07-25T00:04:35.623Z,48.22
2022-07-25T00:07:03.827Z,48.36
2022-07-25T00:09:31.555Z,48.24
2022-07-25T00:11:59.754Z,47.39
2022-07-25T00:14:27.674Z,48.50
2022-07-25T00:16:55.569Z,47.78
2022-07-25T00:19:23.736Z,48.48
2022-07-25T00:21:52.029Z,48.97
2022-07-25T00:24:19.776Z,48.11
2022-07-25T00:29:15.314Z,48.13
2022-07-25T00:31:43.089Z,48.59
2022-07-25T00:34:11.313Z,48.44
2022-07-25T00:36:39.204Z,50.40
2022-07-25T00:39:06.998Z,50.76
2022-07-25T00:41:35.728Z,50.08
2022-07-25T00:44:03.901Z,49.34
2022-07-25T00:46:31.926Z,48.76
2022-07-25T00:49:00.258Z,49.48
2022-07-25T00:51:28.094Z,49.29
2022-07-25T00:53:56.785Z,48.86
2022-07-25T00:56:25.175Z,47.87
2022-07-25T00:58:53.002Z,48.70
2022-07-25T01:01:20.900Z,48.30
2022-07-25T01:03:49.086Z,48.51
2022-07-25T01:06:17.814Z,47.23
2022-07-25T01:08:46.086Z,47.07
2022-07-25T01:11:14.216Z,47.57
2022-07-25T01:13:42.273Z,50.78
2022-07-25T01:16:10.059Z,49.17
2022-07-25T01:18:38.644Z,49.77
2022-07-25T01:21:07.039Z,52.38
2022-07-25T01:23:34.823Z,50.27
2022-07-25T01:26:03.334Z,50.17
2022-07-25T01:28:31.166Z,49.90
2022-07-25T01:30:59.015Z,48.99
2022-07-25T01:33:27.188Z,48.88
2022-07-25T01:35:54.964Z,49.92
2022-07-25T01:38:22.706Z,50.18
2022-07-25T01:40:50.875Z,53.96
2022-07-25T01:43:18.673Z,51.86
2022-07-25T01:45:46.454Z,51.23
2022-07-25T01:48:14.664Z,51.66
2022-07-25T01:50:44.800Z,51.47
2022-07-25T01:53:12.524Z,53.58
2022-07-25T01:55:40.561Z,51.96
2022-07-25T01:58:08.324Z,52.47
2022-07-25T02:00:36.123Z,52.84
2022-07-25T02:03:23.113Z,53.67
2022-07-25T02:05:50.826Z,52.74
2022-07-25T02:08:18.946Z,53.47
2022-07-25T02:10:46.797Z,53.07
2022-07-25T02:13:14.594Z,53.36
2022-07-25T02:15:42.764Z,53.44
2022-07-25T02:18:11.143Z,53.11
2022-07-25T02:20:38.979Z,54.50
2022-07-25T02:23:07.207Z,55.10
2022-07-25T02:25:34.935Z,56.50
2022-07-25T02:28:02.886Z,53.42
2022-07-25T02:30:31.214Z,53.15
2022-07-25T02:33:00.258Z,53.34
2022-07-25T02:35:28.075Z,52.87
2022-07-25T02:37:56.103Z,53.07
2022-07-25T02:40:23.806Z,52.71
2022-07-25T02:42:51.583Z,52.52
2022-07-25T02:45:19.614Z,53.51
2022-07-25T02:47:47.335Z,52.79
2022-07-25T02:50:15.232Z,52.92
2022-07-25T02:52:44.064Z,54.12
2022-07-25T02:55:12.384Z,55.78
2022-07-25T02:57:40.154Z,53.68
2022-07-25T03:00:09.364Z,53.99
2022-07-25T03:02:37.252Z,53.70
2022-07-25T03:05:09.449Z,55.14
2022-07-25T03:07:38.334Z,56.02
2022-07-25T03:10:08.765Z,58.25
2022-07-25T03:12:39.950Z,56.43
2022-07-25T03:15:08.776Z,55.91
2022-07-25T03:17:36.786Z,55.53
2022-07-25T03:20:06.894Z,54.86
2022-07-25T03:22:35.274Z,54.84
2022-07-25T03:25:03.338Z,55.27
2022-07-25T03:27:31.714Z,56.09
2022-07-25T03:29:59.974Z,56.55
2022-07-25T03:32:27.730Z,56.79
2022-07-25T03:34:55.915Z,57.95
2022-07-25T03:37:23.667Z,57.25
2022-07-25T03:39:51.374Z,56.91
2022-07-25T03:42:23.586Z,58.49
2022-07-25T03:44:54.159Z,57.99
2022-07-25T03:47:22.215Z,57.68
2022-07-25T03:49:49.967Z,57.66
2022-07-25T03:52:17.718Z,57.83
2022-07-25T03:54:45.824Z,58.62
2022-07-25T03:57:13.595Z,58.81
2022-07-25T03:59:41.414Z,59.15
2022-07-25T04:02:09.688Z,60.21
2022-07-25T04:04:37.865Z,60.32
2022-07-25T04:07:05.727Z,59.79
2022-07-25T04:09:33.784Z,57.60
2022-07-25T04:12:03.254Z,56.43
2022-07-25T04:14:30.966Z,55.24
2022-07-25T04:16:58.835Z,58.00
2022-07-25T04:19:28.929Z,59.04
2022-07-25T04:21:56.904Z,56.67
2022-07-25T04:24:24.744Z,56.76
2022-07-25T04:26:52.899Z,55.75
2022-07-25T04:29:20.674Z,54.39
2022-07-25T04:31:48.519Z,54.87
2022-07-25T04:34:16.713Z,55.45
2022-07-25T04:36:44.615Z,53.78
2022-07-25T04:39:12.534Z,53.89
2022-07-25T04:41:40.635Z,56.33
2022-07-25T04:44:08.947Z,56.15
2022-07-25T04:46:37.124Z,54.81
2022-07-25T04:49:05.316Z,52.24
2022-07-25T04:51:33.164Z,55.15
2022-07-25T04:54:01.033Z,54.55
2022-07-25T04:56:29.146Z,53.65
2022-07-25T04:58:58.676Z,52.60
2022-07-25T05:01:29.919Z,51.84
2022-07-25T05:03:57.725Z,50.02
2022-07-25T05:06:25.584Z,49.50
2022-07-25T05:08:53.737Z,48.24
2022-07-25T05:11:21.621Z,46.80
2022-07-25T05:13:49.487Z,45.29
2022-07-25T05:16:17.682Z,46.44
2022-07-25T05:18:45.464Z,43.91
2022-07-25T05:21:14.064Z,43.80
2022-07-25T05:23:42.437Z,44.18
2022-07-25T05:26:10.240Z,43.33
2022-07-25T05:28:37.945Z,39.65
2022-07-25T05:31:06.341Z,39.69
2022-07-25T05:33:34.198Z,39.29
2022-07-25T05:36:03.519Z,37.34
2022-07-25T05:38:31.816Z,39.60
2022-07-25T05:40:59.595Z,36.56
2022-07-25T05:43:27.812Z,37.18
2022-07-25T05:46:04.074Z,36.17
2022-07-25T05:48:32.456Z,37.78
2022-07-25T05:51:00.745Z,35.16
2022-07-25T05:53:28.663Z,36.81
2022-07-25T05:55:56.940Z,35.80
2022-07-25T05:58:29.648Z,35.90
2022-07-25T06:00:58.738Z,34.84
2022-07-25T06:03:27.014Z,34.51
2022-07-25T06:05:55.914Z,32.67
2022-07-25T06:08:24.164Z,33.52
2022-07-25T06:10:53.445Z,32.49
2022-07-25T06:13:21.382Z,34.35
2022-07-25T06:15:51.659Z,34.96
2022-07-25T06:18:19.978Z,33.01
2022-07-25T06:20:49.044Z,30.24
2022-07-25T06:23:17.625Z,31.05
2022-07-25T06:25:50.422Z,30.55
2022-07-25T06:28:18.604Z,31.57
2022-07-25T06:30:46.823Z,30.91
2022-07-25T06:33:14.737Z,31.76
2022-07-25T06:35:42.863Z,31.54
2022-07-25T06:38:11.234Z,30.23
2022-07-25T06:40:38.998Z,29.31
2022-07-25T06:43:06.935Z,30.24
2022-07-25T06:45:35.423Z,30.93
2022-07-25T06:48:03.297Z,30.65
2022-07-25T06:50:31.503Z,30.42
2022-07-25T06:52:59.665Z,29.31
2022-07-25T06:55:27.514Z,29.76
2022-07-25T06:57:55.852Z,29.09
2022-07-25T07:00:24.093Z,28.22
2022-07-25T07:02:58.569Z,28.52
2022-07-25T07:05:28.663Z,29.94
2022-07-25T07:07:56.789Z,30.31
2022-07-25T07:10:24.994Z,28.53
2022-07-25T07:13:03.806Z,29.14
2022-07-25T07:15:33.576Z,29.03
2022-07-25T07:18:01.897Z,32.60
2022-07-25T07:20:29.965Z,30.67
2022-07-25T07:22:57.940Z,28.86
2022-07-25T07:25:28.410Z,28.72
2022-07-25T07:27:56.852Z,27.17
2022-07-25T07:30:36.756Z,28.01
2022-07-25T07:33:12.865Z,28.92
2022-07-25T07:35:41.473Z,28.28
2022-07-25T07:38:09.685Z,27.89
2022-07-25T07:40:37.925Z,28.31
2022-07-25T07:43:06.594Z,27.48
2022-07-25T07:45:34.454Z,27.47
2022-07-25T07:48:02.626Z,30.25
2022-07-25T07:50:30.407Z,27.94
2022-07-25T07:52:58.826Z,27.24
2022-07-25T07:55:45.868Z,28.04
2022-07-25T07:58:15.952Z,27.01
2022-07-25T08:00:51.784Z,26.26
2022-07-25T08:03:21.524Z,26.17
2022-07-25T08:05:49.993Z,27.08
2022-07-25T08:08:19.043Z,26.08
2022-07-25T08:10:49.094Z,26.02
2022-07-25T08:13:22.774Z,26.42
2022-07-25T08:15:52.877Z,25.00
2022-07-25T08:18:20.904Z,25.53
2022-07-25T08:20:49.707Z,28.17
2022-07-25T08:23:18.670Z,24.36
2022-07-25T08:25:47.064Z,24.75
2022-07-25T08:28:15.418Z,23.62
2022-07-25T08:30:43.901Z,27.73
2022-07-25T08:33:13.860Z,26.41
2022-07-25T08:35:47.306Z,24.35
2022-07-25T08:38:16.732Z,24.12
2022-07-25T08:40:44.787Z,24.07
2022-07-25T08:43:13.988Z,25.86
2022-07-25T08:45:53.097Z,26.30
2022-07-25T08:48:24.548Z,23.40
2022-07-25T08:50:54.104Z,23.11
2022-07-25T08:53:37.445Z,23.43
2022-07-25T08:56:17.385Z,24.12
2022-07-25T08:58:49.691Z,25.78
2022-07-25T09:01:18.050Z,25.85
2022-07-25T09:03:45.912Z,24.78
2022-07-25T09:06:19.127Z,26.02
2022-07-25T09:08:55.578Z,27.73
2022-07-25T09:11:32.129Z,27.23
2022-07-25T09:14:14.898Z,22.68
2022-07-25T09:16:45.186Z,22.96
2022-07-25T09:19:15.644Z,24.59
2022-07-25T09:21:45.904Z,23.20
2022-07-25T09:24:16.563Z,24.52
2022-07-25T09:26:52.204Z,25.25
2022-07-25T09:29:22.387Z,25.40
2022-07-25T09:31:51.517Z,25.38
2022-07-25T09:34:34.980Z,26.57
2022-07-25T09:37:04.633Z,25.64
2022-07-25T09:39:49.095Z,22.86
2022-07-25T09:42:25.975Z,22.73
2022-07-25T09:45:03.491Z,23.17
2022-07-25T09:47:32.875Z,22.49
2022-07-25T09:50:01.279Z,21.70
2022-07-25T09:52:29.339Z,23.52
2022-07-25T09:54:57.678Z,23.83
2022-07-25T09:57:26.066Z,22.94
2022-07-25T09:59:54.785Z,22.83
2022-07-25T10:02:31.710Z,24.00
2022-07-25T10:05:12.666Z,21.81
2022-07-25T10:07:44.433Z,20.93
2022-07-25T10:10:25.304Z,21.56
2022-07-25T10:13:11.214Z,23.35
2022-07-25T10:15:48.057Z,23.54
2022-07-25T10:18:18.803Z,22.46
2022-07-25T10:20:49.249Z,21.56
2022-07-25T10:23:35.337Z,22.19
2022-07-25T10:26:14.226Z,24.16
2022-07-25T10:28:43.428Z,22.91
2022-07-25T10:31:16.763Z,23.05
2022-07-25T10:33:48.848Z,22.25
2022-07-25T10:36:17.712Z,22.61
2022-07-25T10:38:46.418Z,22.19
2022-07-25T10:41:16.604Z,23.72
2022-07-25T10:43:48.863Z,21.55
2022-07-25T10:46:23.468Z,22.64
2022-07-25T10:49:02.856Z,21.10
2022-07-25T10:51:40.952Z,23.96
2022-07-25T10:54:17.544Z,19.87
2022-07-25T10:56:54.487Z,21.64
2022-07-25T10:59:34.033Z,21.98
2022-07-25T11:02:03.276Z,19.59
2022-07-25T11:04:31.827Z,19.69
2022-07-25T11:07:20.274Z,20.80
2022-07-25T11:10:01.053Z,19.47
2022-07-25T11:12:29.295Z,19.18
2022-07-25T11:15:05.753Z,19.72
2022-07-25T11:17:34.564Z,19.52
2022-07-25T11:20:07.633Z,21.21
2022-07-25T11:22:35.964Z,20.25
2022-07-25T11:25:11.352Z,21.17
2022-07-25T11:27:39.546Z,20.01
2022-07-25T11:30:14.859Z,20.98
2022-07-25T11:32:46.291Z,19.83
2022-07-25T11:35:15.264Z,18.63
2022-07-25T11:37:48.808Z,17.74
2022-07-25T11:40:17.838Z,19.70
2022-07-25T11:42:49.394Z,18.37
2022-07-25T11:45:20.582Z,17.82
2022-07-25T11:47:51.686Z,18.67
2022-07-25T11:50:29.946Z,19.06
2022-07-25T11:53:06.396Z,21.85
2022-07-25T11:55:40.415Z,19.81
2022-07-25T11:58:09.254Z,20.07
2022-07-25T12:00:44.770Z,18.48
2022-07-25T12:03:19.610Z,19.02
2022-07-25T12:05:48.743Z,19.07
2022-07-25T12:08:19.300Z,19.44
2022-07-25T12:10:48.629Z,19.04
2022-07-25T12:13:29.109Z,18.54
2022-07-25T12:15:59.537Z,19.82
2022-07-25T12:18:28.407Z,19.73
2022-07-25T12:20:56.314Z,19.73
2022-07-25T12:23:24.151Z,20.65
2022-07-25T12:25:52.727Z,20.18
2022-07-25T12:28:20.704Z,19.62
2022-07-25T12:31:00.078Z,20.34
2022-07-25T12:33:28.308Z,20.76
2022-07-25T12:35:56.206Z,19.54
2022-07-25T12:38:24.285Z,19.09
2022-07-25T12:40:52.711Z,19.40
2022-07-25T12:43:21.425Z,21.32
2022-07-25T12:45:49.789Z,21.16
2022-07-25T12:48:19.305Z,17.70
2022-07-25T12:50:47.261Z,17.67
2022-07-25T12:53:15.264Z,17.33
2022-07-25T12:55:43.995Z,18.14
2022-07-25T12:58:15.324Z,19.87
2022-07-25T13:00:44.464Z,19.47
2022-07-25T13:03:13.995Z,18.65
2022-07-25T13:05:42.067Z,17.69
2022-07-25T13:08:10.456Z,18.00
2022-07-25T13:10:38.554Z,19.30
2022-07-25T13:13:06.490Z,16.76
2022-07-25T13:15:36.487Z,18.85
2022-07-25T13:18:04.493Z,18.06
2022-07-25T13:20:35.657Z,19.12
2022-07-25T13:23:04.136Z,18.31
2022-07-25T13:25:33.924Z,18.22
2022-07-25T13:28:03.273Z,18.34
2022-07-25T13:30:31.908Z,18.66
2022-07-25T13:32:59.767Z,18.84
2022-07-25T13:35:33.748Z,18.48
2022-07-25T13:38:04.840Z,18.68
2022-07-25T13:40:32.696Z,18.04
2022-07-25T13:43:00.685Z,17.91
2022-07-25T13:45:29.576Z,17.54
2022-07-25T13:48:12.438Z,17.48
2022-07-25T13:50:45.842Z,19.00
2022-07-25T13:53:13.698Z,18.71
2022-07-25T13:55:41.907Z,18.07
2022-07-25T13:58:10.015Z,17.83
2022-07-25T14:00:38.133Z,19.05
2022-07-25T14:03:06.849Z,19.59
2022-07-25T14:05:34.958Z,19.32
2022-07-25T14:08:02.952Z,18.35
2022-07-25T14:10:31.473Z,18.37
2022-07-25T14:12:59.357Z,17.51
2022-07-25T14:15:27.664Z,18.40
2022-07-25T14:17:55.831Z,19.21
2022-07-25T14:20:23.643Z,18.21
2022-07-25T14:22:51.509Z,18.48
2022-07-25T14:25:19.655Z,18.41
2022-07-25T14:27:48.102Z,18.89
2022-07-25T14:30:16.485Z,18.24
2022-07-25T14:32:44.712Z,18.90
2022-07-25T14:35:13.446Z,18.63
2022-07-25T14:37:41.564Z,19.29
2022-07-25T14:40:11.251Z,18.84
2022-07-25T14:42:40.364Z,20.35
2022-07-25T14:45:09.692Z,18.55
2022-07-25T14:47:39.645Z,19.10
2022-07-25T14:50:07.996Z,18.77
2022-07-25T14:52:35.829Z,18.57
2022-07-25T14:55:04.248Z,19.83
2022-07-25T14:57:32.413Z,19.87
2022-07-25T15:00:02.466Z,19.34
2022-07-25T15:02:30.844Z,19.93
2022-07-25T15:04:58.811Z,18.19
2022-07-25T15:07:26.722Z,19.22
2022-07-25T15:09:55.010Z,19.55
2022-07-25T15:12:24.234Z,19.83
2022-07-25T15:14:52.152Z,19.68
2022-07-25T15:17:20.457Z,18.94
2022-07-25T15:19:48.457Z,19.05
2022-07-25T15:22:16.314Z,19.01
2022-07-25T15:25:17.823Z,19.47
2022-07-25T15:27:32.467Z,19.99
2022-07-25T15:30:01.254Z,19.51
2022-07-25T15:32:29.324Z,19.39
2022-07-25T15:34:57.474Z,18.71
2022-07-25T15:37:26.024Z,19.65
2022-07-25T15:39:53.766Z,19.58
2022-07-25T15:42:24.532Z,19.42
2022-07-25T15:45:22.268Z,18.29
2022-07-25T15:47:50.384Z,18.51
2022-07-25T15:50:20.155Z,19.19
2022-07-25T15:52:47.887Z,19.69
2022-07-25T15:55:18.417Z,19.18
2022-07-25T15:57:46.706Z,19.46
2022-07-25T16:00:14.823Z,19.92
2022-07-25T16:02:43.067Z,19.84
2022-07-25T16:05:11.025Z,20.02
2022-07-25T16:07:39.627Z,19.15
2022-07-25T16:10:08.697Z,18.99
2022-07-25T16:12:36.726Z,19.95
2022-07-25T16:15:05.714Z,18.76
2022-07-25T16:17:34.648Z,18.77
2022-07-25T16:20:02.994Z,19.40
2022-07-25T16:22:31.185Z,19.19
2022-07-25T16:25:01.773Z,19.42
2022-07-25T16:27:30.027Z,19.85
2022-07-25T16:29:58.454Z,20.53
2022-07-25T16:32:26.552Z,20.20
2022-07-25T16:34:54.273Z,18.97
2022-07-25T16:37:22.413Z,20.45
2022-07-25T16:39:50.770Z,20.55
2022-07-25T16:42:18.670Z,20.78
2022-07-25T16:44:47.996Z,20.81
2022-07-25T16:47:16.684Z,21.23
2022-07-25T16:49:44.595Z,20.38
2022-07-25T16:52:12.486Z,20.10
2022-07-25T16:54:43.076Z,21.38
2022-07-25T16:57:10.864Z,22.24
2022-07-25T16:59:38.710Z,22.01
2022-07-25T17:02:06.904Z,20.81
2022-07-25T17:04:35.977Z,22.38
2022-07-25T17:07:04.137Z,22.05
2022-07-25T17:09:32.724Z,22.56
2022-07-25T17:12:01.734Z,22.96
2022-07-25T17:14:42.623Z,21.74
2022-07-25T17:17:10.890Z,23.67
2022-07-25T17:19:50.266Z,21.86
2022-07-25T17:22:18.620Z,23.39
2022-07-25T17:24:46.676Z,22.32
2022-07-25T17:27:15.165Z,23.08
2022-07-25T17:29:43.366Z,23.14
2022-07-25T17:32:11.144Z,23.71
2022-07-25T17:34:39.164Z,23.31
2022-07-25T17:37:07.594Z,23.82
2022-07-25T17:39:35.592Z,23.67
2022-07-25T17:42:07.428Z,23.89
2022-07-25T17:44:35.784Z,24.40
2022-07-25T17:47:04.311Z,23.50
2022-07-25T17:49:32.177Z,24.32
2022-07-25T17:52:00.363Z,23.84
2022-07-25T17:54:28.295Z,24.36
2022-07-25T17:56:56.166Z,24.66
2022-07-25T17:59:24.684Z,24.43
2022-07-25T18:01:52.584Z,24.80
2022-07-25T18:04:20.844Z,24.74
2022-07-25T18:06:50.189Z,25.22
2022-07-25T18:09:20.444Z,25.74
2022-07-25T18:11:51.680Z,26.43
2022-07-25T18:14:22.161Z,26.30
2022-07-25T18:16:51.374Z,26.35
2022-07-25T18:19:19.514Z,26.03
2022-07-25T18:21:48.749Z,26.42
2022-07-25T18:24:17.976Z,27.26
2022-07-25T18:26:46.009Z,28.28
2022-07-25T18:29:15.216Z,29.64
2022-07-25T18:31:45.535Z,30.41
2022-07-25T18:34:14.094Z,30.45
2022-07-25T18:36:42.664Z,31.50
2022-07-25T18:39:10.857Z,32.10
2022-07-25T18:41:38.795Z,33.05
2022-07-25T18:44:07.254Z,34.24
2022-07-25T18:46:36.282Z,33.16
2022-07-25T18:49:04.388Z,33.93
2022-07-25T18:51:32.233Z,34.53
2022-07-25T18:54:00.700Z,34.08
2022-07-25T18:56:28.525Z,34.26
2022-07-25T18:58:56.511Z,34.63
2022-07-25T19:01:25.300Z,33.89
2022-07-25T19:03:54.739Z,35.62
2022-07-25T19:06:22.745Z,35.55
2022-07-25T19:08:51.726Z,35.43
2022-07-25T19:11:19.832Z,35.54
2022-07-25T19:13:50.070Z,35.24
2022-07-25T19:16:19.962Z,35.59
2022-07-25T19:18:48.633Z,35.33
2022-07-25T19:21:17.420Z,35.03
2022-07-25T19:23:50.732Z,34.83
2022-07-25T19:26:20.292Z,34.52
2022-07-25T19:28:49.267Z,33.88
2022-07-25T19:31:17.322Z,33.50
2022-07-25T19:33:46.288Z,33.49
2022-07-25T19:36:15.450Z,33.67
2022-07-25T19:38:43.525Z,33.16
2022-07-25T19:41:11.451Z,33.13
2022-07-25T19:43:40.265Z,33.64
2022-07-25T19:46:08.296Z,34.75
2022-07-25T19:48:36.509Z,34.84
2022-07-25T19:51:04.845Z,36.13
2022-07-25T19:53:32.948Z,36.29
2022-07-25T19:56:01.509Z,37.17
2022-07-25T19:58:29.954Z,37.27
2022-07-25T20:00:57.875Z,37.90
2022-07-25T20:03:26.366Z,38.41
2022-07-25T20:05:54.343Z,38.96
2022-07-25T20:08:22.236Z,38.77
2022-07-25T20:10:52.061Z,39.17
2022-07-25T20:13:20.284Z,39.53
2022-07-25T20:15:48.128Z,39.74
2022-07-25T20:18:19.594Z,40.39
2022-07-25T20:20:48.041Z,40.88
2022-07-25T20:23:16.650Z,40.63
2022-07-25T20:25:44.699Z,41.41
2022-07-25T20:28:12.806Z,40.82
2022-07-25T20:30:41.083Z,41.32
2022-07-25T20:33:09.751Z,41.54
2022-07-25T20:35:38.435Z,41.23
2022-07-25T20:38:10.102Z,40.83
2022-07-25T20:40:48.243Z,41.72
2022-07-25T20:43:18.155Z,41.37
2022-07-25T20:45:47.484Z,41.14
2022-07-25T20:48:15.963Z,41.58
2022-07-25T20:50:44.862Z,43.17
2022-07-25T20:53:12.950Z,42.88
2022-07-25T20:55:40.858Z,43.64
2022-07-25T20:58:08.983Z,43.62
2022-07-25T21:00:36.877Z,42.54
2022-07-25T21:03:05.236Z,41.63
2022-07-25T21:05:37.906Z,41.07
2022-07-25T21:08:06.614Z,42.68
2022-07-25T21:10:34.534Z,42.93
2022-07-25T21:13:02.783Z,42.52
2022-07-25T21:15:33.556Z,42.76
2022-07-25T21:18:01.566Z,43.29
2022-07-25T21:20:30.249Z,43.73
2022-07-25T21:22:57.976Z,43.84
2022-07-25T21:25:27.455Z,42.73
2022-07-25T21:27:56.115Z,42.47
2022-07-25T21:30:23.840Z,42.72
2022-07-25T21:32:51.664Z,42.81
2022-07-25T21:35:20.034Z,43.00
2022-07-25T21:37:47.959Z,43.46
2022-07-25T21:40:15.665Z,43.44
2022-07-25T21:42:44.379Z,43.20
2022-07-25T21:45:12.445Z,43.08
2022-07-25T21:47:41.120Z,43.23
2022-07-25T21:50:28.345Z,43.20
2022-07-25T21:52:56.234Z,42.93
2022-07-25T21:55:24.748Z,43.97
2022-07-25T21:57:52.895Z,44.17
2022-07-25T22:00:21.738Z,44.84
2022-07-25T22:02:50.268Z,44.51
2022-07-25T22:05:19.178Z,44.71
2022-07-25T22:07:47.785Z,45.83
2022-07-25T22:10:17.626Z,45.82
2022-07-25T22:12:45.623Z,45.77
2022-07-25T22:15:14.066Z,45.29
2022-07-25T22:17:49.225Z,44.40
2022-07-25T22:20:21.216Z,44.28
2022-07-25T22:22:49.398Z,44.72
2022-07-25T22:25:17.348Z,44.39
2022-07-25T22:27:45.177Z,44.31
2022-07-25T22:30:18.249Z,44.13
2022-07-25T22:32:50.369Z,44.64
2022-07-25T22:35:18.766Z,44.00
2022-07-25T22:37:46.645Z,44.38
2022-07-25T22:40:14.868Z,45.27
2022-07-25T22:42:43.004Z,44.34
2022-07-25T22:45:11.235Z,44.09
2022-07-25T22:47:39.184Z,45.39
2022-07-25T22:50:08.394Z,44.83
2022-07-25T22:52:36.225Z,43.37
2022-07-25T22:55:04.616Z,43.84
2022-07-25T22:57:37.248Z,46.01
2022-07-25T23:00:07.696Z,44.32
2022-07-25T23:02:35.946Z,44.88
2022-07-25T23:05:04.754Z,44.53
2022-07-25T23:07:33.371Z,44.06
2022-07-25T23:10:02.184Z,43.95
2022-07-25T23:12:30.068Z,45.12
2022-07-25T23:14:57.915Z,45.06
2022-07-25T23:17:26.213Z,45.10
2022-07-25T23:19:55.328Z,45.47
2022-07-25T23:22:25.315Z,45.40
2022-07-25T23:24:53.451Z,45.45
2022-07-25T23:27:21.806Z,45.48
2022-07-25T23:29:49.638Z,47.50
2022-07-25T23:32:17.908Z,47.68
2022-07-25T23:34:45.605Z,47.03
2022-07-25T23:37:13.416Z,45.99
2022-07-25T23:39:41.526Z,44.55
2022-07-25T23:42:09.263Z,45.96
2022-07-25T23:44:37.164Z,44.88
2022-07-25T23:47:10.094Z,45.09
2022-07-25T23:49:38.243Z,45.37
2022-07-25T23:52:06.448Z,45.61
2022-07-25T23:54:38.515Z,45.54
2022-07-25T23:57:07.882Z,46.32
2022-07-25T23:59:36.064Z,46.17
